createdAt,value
2016-12-26T00:00:53.135Z,94.7
2016-12-26T00:01:56.591Z,94.7
2016-12-26T00:02:59.540Z,94.7
2016-12-26T00:04:02.993Z,94.7
2016-12-26T00:05:06.452Z,94.7
2016-12-26T00:06:09.425Z,94.7
2016-12-26T00:07:12.880Z,94.7
2016-12-26T00:08:16.327Z,94.7
2016-12-26T00:09:19.275Z,94.7
2016-12-26T00:10:22.721Z,94.7
2016-12-26T00:12:29.586Z,94.7
2016-12-26T00:13:32.536Z,94.7
2016-12-26T00:14:35.987Z,94.7
2016-12-26T00:15:39.437Z,94.7
2016-12-26T00:16:42.387Z,94.7
2016-12-26T00:17:45.836Z,94.7
2016-12-26T00:18:49.295Z,94.7
2016-12-26T00:19:52.241Z,94.7
2016-12-26T00:20:55.690Z,94.7
2016-12-26T00:21:59.135Z,94.7
2016-12-26T00:23:02.582Z,94.7
2016-12-26T00:24:05.535Z,94.7
2016-12-26T00:26:12.396Z,94.7
2016-12-26T00:27:15.345Z,94.7
2016-12-26T00:28:18.799Z,94.7
2016-12-26T00:29:22.249Z,94.7
2016-12-26T00:30:25.204Z,94.7
2016-12-26T00:31:28.655Z,94.7
2016-12-26T00:32:32.105Z,94.7
2016-12-26T00:33:35.555Z,94.7
2016-12-26T00:34:38.502Z,94.7
2016-12-26T00:35:41.954Z,94.7
2016-12-26T00:36:45.408Z,94.7
2016-12-26T00:37:48.355Z,94.7
2016-12-26T00:38:51.813Z,94.7
2016-12-26T00:39:55.264Z,94.7
2016-12-26T00:40:58.214Z,94.7
2016-12-26T00:42:01.662Z,94.7
2016-12-26T00:43:05.115Z,94.7
2016-12-26T00:44:08.564Z,94.7
2016-12-26T00:45:11.510Z,94.7
2016-12-26T00:46:14.960Z,94.7
2016-12-26T00:47:18.411Z,94.7
2016-12-26T00:48:21.359Z,94.7
2016-12-26T00:49:24.809Z,94.7
2016-12-26T00:50:28.260Z,94.7
2016-12-26T00:51:31.206Z,94.7
2016-12-26T00:52:34.653Z,94.7
2016-12-26T00:53:38.109Z,94.7
2016-12-26T00:54:41.220Z,94.7
2016-12-26T00:55:44.379Z,94.7
2016-12-26T00:56:47.831Z,94.7
2016-12-26T00:57:51.280Z,94.7
2016-12-26T00:59:57.640Z,94.7
2016-12-26T01:01:01.085Z,94.7
2016-12-26T01:02:04.539Z,94.7
2016-12-26T01:03:07.526Z,94.7
2016-12-26T01:04:10.979Z,94.7
2016-12-26T01:05:14.426Z,94.7
2016-12-26T01:06:17.373Z,94.7
2016-12-26T01:07:20.825Z,94.7
2016-12-26T01:08:24.278Z,94.7
2016-12-26T01:09:27.731Z,94.7
2016-12-26T01:11:34.091Z,94.7
2016-12-26T01:12:37.541Z,94.7
2016-12-26T01:13:40.485Z,94.7
2016-12-26T01:14:43.934Z,94.7
2016-12-26T01:15:47.384Z,94.7
2016-12-26T01:16:50.837Z,94.7
2016-12-26T01:17:53.783Z,94.7
2016-12-26T01:18:57.230Z,94.7
2016-12-26T01:20:00.684Z,94.7
2016-12-26T01:21:03.695Z,94.7
2016-12-26T01:22:07.139Z,94.7
2016-12-26T01:23:10.605Z,94.7
2016-12-26T01:24:13.561Z,94.7
2016-12-26T01:25:17.013Z,94.7
2016-12-26T01:26:20.464Z,94.7
2016-12-26T01:27:23.408Z,94.7
2016-12-26T01:28:26.856Z,94.7
2016-12-26T01:29:30.305Z,94.7
2016-12-26T01:30:33.252Z,94.7
2016-12-26T01:31:36.707Z,94.7
2016-12-26T01:32:40.155Z,94.7
2016-12-26T01:33:43.603Z,94.7
2016-12-26T01:34:46.546Z,94.7
2016-12-26T01:35:50.148Z,94.7
2016-12-26T01:36:53.097Z,94.7
2016-12-26T01:37:56.550Z,94.7
2016-12-26T01:38:59.996Z,94.7
2016-12-26T01:40:02.950Z,94.7
2016-12-26T01:41:06.404Z,94.7
2016-12-26T01:42:09.861Z,94.7
2016-12-26T01:43:13.309Z,94.7
2016-12-26T01:44:16.255Z,94.7
2016-12-26T01:45:19.701Z,94.7
2016-12-26T01:46:23.154Z,94.7
2016-12-26T01:47:26.106Z,94.7
2016-12-26T01:48:29.556Z,94.7
2016-12-26T01:49:33.010Z,94.7
2016-12-26T01:50:35.959Z,94.7
2016-12-26T01:51:39.409Z,94.7
2016-12-26T01:52:42.860Z,94.7
2016-12-26T01:53:46.314Z,94.7
2016-12-26T01:54:49.291Z,94.7
2016-12-26T01:55:52.742Z,94.7
2016-12-26T01:56:56.196Z,94.7
2016-12-26T01:57:59.145Z,94.7
2016-12-26T01:59:02.592Z,94.7
2016-12-26T02:00:05.671Z,94.7
2016-12-26T02:01:09.120Z,94.7
2016-12-26T02:02:12.568Z,94.7
2016-12-26T02:03:16.015Z,94.7
2016-12-26T02:04:18.960Z,94.7
2016-12-26T02:05:22.411Z,94.7
2016-12-26T02:06:25.866Z,94.7
2016-12-26T02:07:28.815Z,94.7
2016-12-26T02:08:32.267Z,94.7
2016-12-26T02:09:35.715Z,94.7
2016-12-26T02:10:38.687Z,94.7
2016-12-26T02:11:42.135Z,94.7
2016-12-26T02:12:45.587Z,94.7
2016-12-26T02:13:48.534Z,94.7
2016-12-26T02:14:51.988Z,94.7
2016-12-26T02:15:55.440Z,94.7
2016-12-26T02:16:58.894Z,94.7
2016-12-26T02:19:05.251Z,94.7
2016-12-26T02:20:08.700Z,94.7
2016-12-26T02:21:11.649Z,94.7
2016-12-26T02:22:15.099Z,94.7
2016-12-26T02:23:18.553Z,94.7
2016-12-26T02:24:21.640Z,94.7
2016-12-26T02:25:25.086Z,94.7
2016-12-26T02:26:28.536Z,94.7
2016-12-26T02:27:31.483Z,94.7
2016-12-26T02:28:35.068Z,94.7
2016-12-26T02:29:38.515Z,94.7
2016-12-26T02:30:41.457Z,94.7
2016-12-26T02:32:48.323Z,94.7
2016-12-26T02:33:51.272Z,94.7
2016-12-26T02:34:54.720Z,94.7
2016-12-26T02:35:58.169Z,94.7
2016-12-26T02:37:01.618Z,94.7
2016-12-26T02:38:04.561Z,94.7
2016-12-26T02:39:08.006Z,94.7
2016-12-26T02:40:11.463Z,94.7
2016-12-26T02:41:14.413Z,94.7
2016-12-26T02:42:17.862Z,94.7
2016-12-26T02:43:21.309Z,94.7
2016-12-26T02:44:24.249Z,94.7
2016-12-26T02:45:27.697Z,94.7
2016-12-26T02:46:31.148Z,94.7
2016-12-26T02:47:34.601Z,94.7
2016-12-26T02:48:37.548Z,94.7
2016-12-26T02:49:41.001Z,94.7
2016-12-26T02:50:44.451Z,94.7
2016-12-26T02:51:47.465Z,94.7
2016-12-26T02:52:50.912Z,94.7
2016-12-26T02:53:54.357Z,94.7
2016-12-26T02:54:57.305Z,94.7
2016-12-26T02:56:00.758Z,94.7
2016-12-26T02:57:04.211Z,94.7
2016-12-26T02:58:07.158Z,94.7
2016-12-26T02:59:10.613Z,94.7
2016-12-26T03:00:14.068Z,94.7
2016-12-26T03:01:17.521Z,94.7
2016-12-26T03:02:20.465Z,94.7
2016-12-26T03:03:23.914Z,94.7
2016-12-26T03:04:27.366Z,94.7
2016-12-26T03:05:30.311Z,94.7
2016-12-26T03:06:33.757Z,94.7
2016-12-26T03:07:37.210Z,94.7
2016-12-26T03:08:40.220Z,94.7
2016-12-26T03:09:43.670Z,94.7
2016-12-26T03:10:47.129Z,94.7
2016-12-26T03:11:50.074Z,94.7
2016-12-26T03:12:53.534Z,94.7
2016-12-26T03:13:56.988Z,94.7
2016-12-26T03:15:00.435Z,94.7
2016-12-26T03:16:03.384Z,94.7
2016-12-26T03:17:06.836Z,94.7
2016-12-26T03:18:10.285Z,94.7
2016-12-26T03:19:13.227Z,94.7
2016-12-26T03:20:16.682Z,94.7
2016-12-26T03:21:20.130Z,94.7
2016-12-26T03:22:23.105Z,94.7
2016-12-26T03:23:26.558Z,94.7
2016-12-26T03:24:30.012Z,94.7
2016-12-26T03:25:32.968Z,94.7
2016-12-26T03:26:36.421Z,94.7
2016-12-26T03:28:43.285Z,94.7
2016-12-26T03:29:46.234Z,94.7
2016-12-26T03:31:53.232Z,94.7
2016-12-26T03:32:56.178Z,94.7
2016-12-26T03:33:59.630Z,94.7
2016-12-26T03:35:03.085Z,94.7
2016-12-26T03:36:06.043Z,94.7
2016-12-26T03:37:09.492Z,94.7
2016-12-26T03:38:12.944Z,94.7
2016-12-26T03:39:15.890Z,94.7
2016-12-26T03:40:19.342Z,94.7
2016-12-26T03:41:22.800Z,94.7
2016-12-26T03:42:26.255Z,94.7
2016-12-26T03:43:29.199Z,94.7
2016-12-26T03:44:32.791Z,94.7
2016-12-26T03:45:35.744Z,94.7
2016-12-26T03:46:39.201Z,94.7
2016-12-26T03:47:42.647Z,94.7
2016-12-26T03:48:45.621Z,94.7
2016-12-26T03:49:49.072Z,94.7
2016-12-26T03:50:52.522Z,94.7
2016-12-26T03:52:58.888Z,94.7
2016-12-26T03:54:02.335Z,94.7
2016-12-26T03:55:05.785Z,94.7
2016-12-26T03:56:08.741Z,94.7
2016-12-26T03:57:12.191Z,94.7
2016-12-26T03:58:15.645Z,94.7
2016-12-26T03:59:18.603Z,94.7
2016-12-26T04:00:22.082Z,94.7
2016-12-26T04:01:25.536Z,94.7
2016-12-26T04:02:28.988Z,94.7
2016-12-26T04:03:31.936Z,94.7
2016-12-26T04:04:35.456Z,94.7
2016-12-26T04:05:38.407Z,94.7
2016-12-26T04:06:41.925Z,94.7
2016-12-26T04:07:45.382Z,94.7
2016-12-26T04:08:48.469Z,94.7
2016-12-26T04:09:51.927Z,94.7
2016-12-26T04:10:55.383Z,94.7
2016-12-26T04:11:58.471Z,94.7
2016-12-26T04:13:01.554Z,94.7
2016-12-26T04:14:05.009Z,94.7
2016-12-26T04:15:08.458Z,94.7
2016-12-26T04:16:11.907Z,94.7
2016-12-26T04:17:14.858Z,94.7
2016-12-26T04:18:18.311Z,94.7
2016-12-26T04:19:21.761Z,94.7
2016-12-26T04:20:24.741Z,94.7
2016-12-26T04:21:28.199Z,94.7
2016-12-26T04:22:31.649Z,94.7
2016-12-26T04:24:38.009Z,94.7
2016-12-26T04:25:41.453Z,94.7
2016-12-26T04:26:44.907Z,94.7
2016-12-26T04:27:47.863Z,94.7
2016-12-26T04:28:51.323Z,94.7
2016-12-26T04:29:54.782Z,94.7
2016-12-26T04:30:57.730Z,94.7
2016-12-26T04:32:01.186Z,94.7
2016-12-26T04:33:04.633Z,94.7
2016-12-26T04:34:07.580Z,94.7
2016-12-26T04:35:11.031Z,94.7
2016-12-26T04:36:14.480Z,94.7
2016-12-26T04:37:17.931Z,94.7
2016-12-26T04:38:20.884Z,94.7
2016-12-26T04:39:24.341Z,94.7
2016-12-26T04:40:27.793Z,94.7
2016-12-26T04:41:30.765Z,94.7
2016-12-26T04:42:34.219Z,94.7
2016-12-26T04:43:37.680Z,94.7
2016-12-26T04:44:40.633Z,94.8
2016-12-26T04:45:44.085Z,94.8
2016-12-26T04:46:47.538Z,94.7
2016-12-26T04:47:50.485Z,94.7
2016-12-26T04:48:53.934Z,94.7
2016-12-26T04:49:57.385Z,94.7
2016-12-26T04:51:00.835Z,94.7
2016-12-26T04:52:03.787Z,94.7
2016-12-26T04:53:07.239Z,94.7
2016-12-26T04:54:10.691Z,94.7
2016-12-26T04:55:13.638Z,94.7
2016-12-26T04:56:17.094Z,94.7
2016-12-26T04:57:20.546Z,94.7
2016-12-26T04:58:23.500Z,94.7
2016-12-26T04:59:26.958Z,94.7
2016-12-26T05:01:33.821Z,94.7
2016-12-26T05:02:36.768Z,94.7
2016-12-26T05:03:40.222Z,94.7
2016-12-26T05:04:43.683Z,94.7
2016-12-26T05:05:46.635Z,94.7
2016-12-26T05:06:50.089Z,94.7
2016-12-26T05:07:53.538Z,94.7
2016-12-26T05:08:56.486Z,94.7
2016-12-26T05:09:59.941Z,94.7
2016-12-26T05:11:03.395Z,94.7
2016-12-26T05:12:06.843Z,94.7
2016-12-26T05:13:09.789Z,94.7
2016-12-26T05:14:13.234Z,94.7
2016-12-26T05:15:16.689Z,94.7
2016-12-26T05:16:19.636Z,94.7
2016-12-26T05:17:23.096Z,94.7
2016-12-26T05:18:26.550Z,94.7
2016-12-26T05:19:30.003Z,94.7
2016-12-26T05:20:32.949Z,94.7
2016-12-26T05:21:36.401Z,94.7
2016-12-26T05:22:39.854Z,94.7
2016-12-26T05:23:42.802Z,94.7
2016-12-26T05:24:46.253Z,94.7
2016-12-26T05:25:49.338Z,94.7
2016-12-26T05:26:52.792Z,94.7
2016-12-26T05:27:56.244Z,94.7
2016-12-26T05:28:59.694Z,94.7
2016-12-26T05:30:02.644Z,94.7
2016-12-26T05:31:06.094Z,94.7
2016-12-26T05:32:09.543Z,94.7
2016-12-26T05:33:12.497Z,94.7
2016-12-26T05:34:15.976Z,94.7
2016-12-26T05:35:19.432Z,94.7
2016-12-26T05:36:22.380Z,94.7
2016-12-26T05:37:25.838Z,94.7
2016-12-26T05:38:29.292Z,94.7
2016-12-26T05:39:32.747Z,94.7
2016-12-26T05:40:35.699Z,94.7
2016-12-26T05:41:39.152Z,94.7
2016-12-26T05:42:42.606Z,94.7
2016-12-26T05:43:45.551Z,94.7
2016-12-26T05:44:49.002Z,94.7
2016-12-26T05:45:52.452Z,94.7
2016-12-26T05:46:55.401Z,94.7
2016-12-26T05:47:58.858Z,94.7
2016-12-26T05:49:02.312Z,94.7
2016-12-26T05:50:05.761Z,94.7
2016-12-26T05:51:08.711Z,94.7
2016-12-26T05:52:12.161Z,94.7
2016-12-26T05:53:15.612Z,94.7
2016-12-26T05:54:18.558Z,94.7
2016-12-26T05:55:22.012Z,94.7
2016-12-26T05:56:25.466Z,94.7
2016-12-26T05:57:28.917Z,94.7
2016-12-26T05:58:31.865Z,94.7
2016-12-26T05:59:35.328Z,94.7
2016-12-26T06:00:38.780Z,94.7
2016-12-26T06:01:41.728Z,94.7
2016-12-26T06:02:45.180Z,94.7
2016-12-26T06:03:48.664Z,94.7
2016-12-26T06:04:51.614Z,94.7
2016-12-26T06:05:55.065Z,94.7
2016-12-26T06:06:58.515Z,94.7
2016-12-26T06:08:01.959Z,94.7
2016-12-26T06:09:04.907Z,94.7
2016-12-26T06:10:08.354Z,94.7
2016-12-26T06:11:11.807Z,94.7
2016-12-26T06:12:14.752Z,94.7
2016-12-26T06:13:18.203Z,94.7
2016-12-26T06:14:21.677Z,94.7
2016-12-26T06:15:24.629Z,94.7
2016-12-26T06:17:31.492Z,94.7
2016-12-26T06:18:34.938Z,94.7
2016-12-26T06:19:37.885Z,94.7
2016-12-26T06:20:41.336Z,94.7
2016-12-26T06:21:44.791Z,94.7
2016-12-26T06:22:47.742Z,94.7
2016-12-26T06:23:51.198Z,94.7
2016-12-26T06:24:54.649Z,94.7
2016-12-26T06:25:58.106Z,94.7
2016-12-26T06:27:01.060Z,94.7
2016-12-26T06:28:04.660Z,94.7
2016-12-26T06:29:07.618Z,94.7
2016-12-26T06:30:11.068Z,94.7
2016-12-26T06:31:14.519Z,94.7
2016-12-26T06:32:17.972Z,94.7
2016-12-26T06:33:20.925Z,94.7
2016-12-26T06:34:24.377Z,94.7
2016-12-26T06:36:30.735Z,94.7
2016-12-26T06:37:34.198Z,94.7
2016-12-26T06:38:37.677Z,94.7
2016-12-26T06:39:40.634Z,94.7
2016-12-26T06:40:44.093Z,94.7
2016-12-26T06:41:47.551Z,94.7
2016-12-26T06:42:51.001Z,94.7
2016-12-26T06:43:53.953Z,94.7
2016-12-26T06:44:57.434Z,94.7
2016-12-26T06:46:00.888Z,94.7
2016-12-26T06:47:03.837Z,94.7
2016-12-26T06:48:07.424Z,94.7
2016-12-26T06:49:10.372Z,94.7
2016-12-26T06:50:13.819Z,94.7
2016-12-26T06:51:17.269Z,94.7
2016-12-26T06:52:20.719Z,94.7
2016-12-26T06:53:23.676Z,94.7
2016-12-26T06:54:27.130Z,94.7
2016-12-26T06:55:30.580Z,94.7
2016-12-26T06:56:33.536Z,94.7
2016-12-26T06:57:36.991Z,94.7
2016-12-26T06:58:40.446Z,94.7
2016-12-26T06:59:43.894Z,94.7
2016-12-26T07:00:46.848Z,94.7
2016-12-26T07:01:50.301Z,94.7
2016-12-26T07:02:53.751Z,94.7
2016-12-26T07:03:56.699Z,94.7
2016-12-26T07:05:00.146Z,94.7
2016-12-26T07:06:03.597Z,94.7
2016-12-26T07:07:07.053Z,94.7
2016-12-26T07:08:10.006Z,94.7
2016-12-26T07:09:13.451Z,94.7
2016-12-26T07:10:16.905Z,94.7
2016-12-26T07:11:19.854Z,94.7
2016-12-26T07:12:23.310Z,94.7
2016-12-26T07:13:26.760Z,94.7
2016-12-26T07:14:29.711Z,94.7
2016-12-26T07:15:33.160Z,94.7
2016-12-26T07:16:36.610Z,94.6
2016-12-26T07:17:40.058Z,94.7
2016-12-26T07:18:43.009Z,94.6
2016-12-26T07:19:46.460Z,94.7
2016-12-26T07:20:49.910Z,94.6
2016-12-26T07:21:52.857Z,94.6
2016-12-26T07:22:56.309Z,94.6
2016-12-26T07:23:59.757Z,94.6
2016-12-26T07:25:03.217Z,94.6
2016-12-26T07:26:06.166Z,94.6
2016-12-26T07:27:09.615Z,94.6
2016-12-26T07:28:13.068Z,94.6
2016-12-26T07:29:16.015Z,94.6
2016-12-26T07:30:19.466Z,94.6
2016-12-26T07:31:22.920Z,94.6
2016-12-26T07:32:26.375Z,94.6
2016-12-26T07:33:29.322Z,94.6
2016-12-26T07:34:32.772Z,94.6
2016-12-26T07:35:36.221Z,94.6
2016-12-26T07:36:39.168Z,94.6
2016-12-26T07:37:42.624Z,94.6
2016-12-26T07:38:46.076Z,94.6
2016-12-26T07:39:49.531Z,94.6
2016-12-26T07:40:52.478Z,94.6
2016-12-26T07:44:02.259Z,94.6
2016-12-26T07:45:05.713Z,94.6
2016-12-26T07:46:09.165Z,94.6
2016-12-26T07:47:12.613Z,94.6
2016-12-26T07:48:15.567Z,94.6
2016-12-26T07:49:19.017Z,94.6
2016-12-26T07:50:22.471Z,94.6
2016-12-26T07:51:25.421Z,94.6
2016-12-26T07:52:28.870Z,94.6
2016-12-26T07:53:32.331Z,94.6
2016-12-26T07:54:35.791Z,94.6
2016-12-26T07:55:38.746Z,94.6
2016-12-26T07:56:42.195Z,94.6
2016-12-26T07:57:45.644Z,94.6
2016-12-26T07:58:48.588Z,94.6
2016-12-26T07:59:52.039Z,94.6
2016-12-26T08:00:55.491Z,94.6
2016-12-26T08:01:58.944Z,94.6
2016-12-26T08:03:01.896Z,94.6
2016-12-26T08:04:05.349Z,94.6
2016-12-26T08:05:08.798Z,94.6
2016-12-26T08:06:11.740Z,94.6
2016-12-26T08:08:18.606Z,94.6
2016-12-26T08:09:22.054Z,94.6
2016-12-26T08:10:25.000Z,94.6
2016-12-26T08:11:28.452Z,94.6
2016-12-26T08:12:31.897Z,94.6
2016-12-26T08:13:35.354Z,94.6
2016-12-26T08:14:38.302Z,94.6
2016-12-26T08:15:41.756Z,94.6
2016-12-26T08:16:45.211Z,94.6
2016-12-26T08:17:48.179Z,94.6
2016-12-26T08:18:51.632Z,94.6
2016-12-26T08:19:55.090Z,94.6
2016-12-26T08:20:58.039Z,94.6
2016-12-26T08:22:01.491Z,94.6
2016-12-26T08:23:04.943Z,94.5
2016-12-26T08:24:08.403Z,94.6
2016-12-26T08:25:11.347Z,94.5
2016-12-26T08:26:14.797Z,94.5
2016-12-26T08:27:18.248Z,94.5
2016-12-26T08:28:21.194Z,94.5
2016-12-26T08:29:24.652Z,94.5
2016-12-26T08:30:28.099Z,94.5
2016-12-26T08:31:31.553Z,94.5
2016-12-26T08:32:34.505Z,94.5
2016-12-26T08:33:37.959Z,94.5
2016-12-26T08:34:41.409Z,94.5
2016-12-26T08:35:44.364Z,94.5
2016-12-26T08:36:47.861Z,94.5
2016-12-26T08:37:51.317Z,94.5
2016-12-26T08:38:54.767Z,94.5
2016-12-26T08:39:57.721Z,94.5
2016-12-26T08:41:01.179Z,94.5
2016-12-26T08:42:04.632Z,94.5
2016-12-26T08:44:10.992Z,94.5
2016-12-26T08:45:14.438Z,94.5
2016-12-26T08:46:17.883Z,94.5
2016-12-26T08:47:20.843Z,94.4
2016-12-26T08:48:24.294Z,94.4
2016-12-26T08:49:27.749Z,94.4
2016-12-26T08:50:31.204Z,94.5
2016-12-26T08:51:34.148Z,94.4
2016-12-26T08:52:37.595Z,94.4
2016-12-26T08:53:41.044Z,94.4
2016-12-26T08:54:43.992Z,94.4
2016-12-26T08:55:47.443Z,94.4
2016-12-26T08:56:51.036Z,94.4
2016-12-26T08:57:54.143Z,94.4
2016-12-26T08:58:57.599Z,94.4
2016-12-26T09:00:01.049Z,94.4
2016-12-26T09:01:03.998Z,94.4
2016-12-26T09:02:07.450Z,94.4
2016-12-26T09:04:13.812Z,94.4
2016-12-26T09:05:17.273Z,94.4
2016-12-26T09:06:20.724Z,94.4
2016-12-26T09:07:24.175Z,94.4
2016-12-26T09:08:27.125Z,94.4
2016-12-26T09:10:33.991Z,94.4
2016-12-26T09:11:37.443Z,94.4
2016-12-26T09:12:40.389Z,94.4
2016-12-26T09:13:43.838Z,94.4
2016-12-26T09:14:47.290Z,94.4
2016-12-26T09:15:50.739Z,94.4
2016-12-26T09:16:53.689Z,94.4
2016-12-26T09:17:57.141Z,94.4
2016-12-26T09:19:00.596Z,94.4
2016-12-26T09:20:03.682Z,94.4
2016-12-26T09:21:07.138Z,94.4
2016-12-26T09:22:10.591Z,94.4
2016-12-26T09:23:13.536Z,94.4
2016-12-26T09:24:17.148Z,94.4
2016-12-26T09:25:20.609Z,94.4
2016-12-26T09:26:23.560Z,94.4
2016-12-26T09:27:27.008Z,94.4
2016-12-26T09:28:30.459Z,94.4
2016-12-26T09:29:33.433Z,94.3
2016-12-26T09:30:36.882Z,94.3
2016-12-26T09:31:40.334Z,94.3
2016-12-26T09:33:46.694Z,94.3
2016-12-26T09:34:50.141Z,94.3
2016-12-26T09:35:53.652Z,94.3
2016-12-26T09:36:57.109Z,94.3
2016-12-26T09:38:00.085Z,94.3
2016-12-26T09:39:03.537Z,94.2
2016-12-26T09:40:06.998Z,94.2
2016-12-26T09:41:09.949Z,94.2
2016-12-26T09:42:13.400Z,94.2
2016-12-26T09:44:20.286Z,94.2
2016-12-26T09:45:23.238Z,94.2
2016-12-26T09:47:30.106Z,94.2
2016-12-26T09:48:33.557Z,94.2
2016-12-26T09:49:36.507Z,94.2
2016-12-26T09:50:39.955Z,94.2
2016-12-26T09:51:43.402Z,94.2
2016-12-26T09:53:50.271Z,94.2
2016-12-26T09:54:53.228Z,94.2
2016-12-26T09:55:56.680Z,94.2
2016-12-26T09:57:00.141Z,94.2
2016-12-26T09:58:03.090Z,94.2
2016-12-26T09:59:06.548Z,94.2
2016-12-26T10:00:10.005Z,94.2
2016-12-26T10:01:13.464Z,94.2
2016-12-26T10:02:16.412Z,94.2
2016-12-26T10:03:19.863Z,94.2
2016-12-26T10:04:23.316Z,94.2
2016-12-26T10:05:26.773Z,94.2
2016-12-26T10:06:29.717Z,94.2
2016-12-26T10:07:33.168Z,94.2
2016-12-26T10:08:36.624Z,94.2
2016-12-26T10:09:40.077Z,94.2
2016-12-26T10:10:43.023Z,94.2
2016-12-26T10:11:46.469Z,94.2
2016-12-26T10:12:49.920Z,94.2
2016-12-26T10:13:52.871Z,94.2
2016-12-26T10:14:56.318Z,94.2
2016-12-26T10:15:59.768Z,94.2
2016-12-26T10:17:03.214Z,94.2
2016-12-26T10:18:06.160Z,94.2
2016-12-26T10:19:09.610Z,94.2
2016-12-26T10:20:13.063Z,94.2
2016-12-26T10:21:16.516Z,94.2
2016-12-26T10:22:19.465Z,94.2
2016-12-26T10:23:22.913Z,94.2
2016-12-26T10:24:26.369Z,94.2
2016-12-26T10:25:29.855Z,94.2
2016-12-26T10:26:32.802Z,94.2
2016-12-26T10:27:36.259Z,94.2
2016-12-26T10:28:39.715Z,94.2
2016-12-26T10:29:43.180Z,94.2
2016-12-26T10:30:46.123Z,94.2
2016-12-26T10:31:49.577Z,94.2
2016-12-26T10:32:53.028Z,94.2
2016-12-26T10:33:56.481Z,94.2
2016-12-26T10:34:59.429Z,94.2
2016-12-26T10:36:02.881Z,94.2
2016-12-26T10:37:06.332Z,94.2
2016-12-26T10:38:09.281Z,94.2
2016-12-26T10:39:12.733Z,94.2
2016-12-26T10:40:16.189Z,94.2
2016-12-26T10:41:19.642Z,94.2
2016-12-26T10:42:22.590Z,94.2
2016-12-26T10:43:26.039Z,94.2
2016-12-26T10:44:29.496Z,94.2
2016-12-26T10:45:32.950Z,94.2
2016-12-26T10:46:35.911Z,94.2
2016-12-26T10:47:39.366Z,94.2
2016-12-26T10:48:42.815Z,94.2
2016-12-26T10:49:46.267Z,94.2
2016-12-26T10:50:49.214Z,94.2
2016-12-26T10:51:52.667Z,94.2
2016-12-26T10:52:56.120Z,94.2
2016-12-26T10:53:59.573Z,94.2
2016-12-26T10:55:02.525Z,94.2
2016-12-26T10:56:05.977Z,94.2
2016-12-26T10:57:09.426Z,94.2
2016-12-26T10:58:12.878Z,94.2
2016-12-26T10:59:15.825Z,94.2
2016-12-26T11:00:19.276Z,94.2
2016-12-26T11:01:22.722Z,94.2
2016-12-26T11:02:26.171Z,94.2
2016-12-26T11:03:29.126Z,94.2
2016-12-26T11:04:32.586Z,94.2
2016-12-26T11:05:36.038Z,94.2
2016-12-26T11:06:39.493Z,94.2
2016-12-26T11:07:42.445Z,94.2
2016-12-26T11:08:45.897Z,94.1
2016-12-26T11:09:49.350Z,94.1
2016-12-26T11:10:52.807Z,94.1
2016-12-26T11:11:55.762Z,94.1
2016-12-26T11:12:59.220Z,94.1
2016-12-26T11:14:02.677Z,94.1
2016-12-26T11:15:05.625Z,94.1
2016-12-26T11:16:09.083Z,94.1
2016-12-26T11:17:12.534Z,94.1
2016-12-26T11:18:15.990Z,94.1
2016-12-26T11:19:18.935Z,94.1
2016-12-26T11:20:22.410Z,94.1
2016-12-26T11:21:25.867Z,94.1
2016-12-26T11:22:29.317Z,94.1
2016-12-26T11:23:32.261Z,94.1
2016-12-26T11:24:35.737Z,94.1
2016-12-26T11:25:39.192Z,94.1
2016-12-26T11:26:42.640Z,94.1
2016-12-26T11:27:45.596Z,94.1
2016-12-26T11:28:49.181Z,94.1
2016-12-26T11:29:52.635Z,94.1
2016-12-26T11:30:55.580Z,94
2016-12-26T11:31:59.025Z,94
2016-12-26T11:33:02.478Z,94
2016-12-26T11:34:05.933Z,94
2016-12-26T11:35:08.884Z,94
2016-12-26T11:36:12.340Z,94
2016-12-26T11:37:15.790Z,94
2016-12-26T11:38:19.244Z,94
2016-12-26T11:39:22.689Z,94
2016-12-26T11:40:25.665Z,94
2016-12-26T11:41:29.114Z,94
2016-12-26T11:42:32.567Z,94
2016-12-26T11:43:35.522Z,94
2016-12-26T11:44:39.035Z,94
2016-12-26T11:45:42.495Z,94
2016-12-26T11:46:45.944Z,94
2016-12-26T11:47:48.939Z,94
2016-12-26T11:48:52.389Z,93.9
2016-12-26T11:49:55.844Z,93.9
2016-12-26T11:50:59.324Z,93.9
2016-12-26T11:52:02.272Z,93.9
2016-12-26T11:53:05.720Z,93.9
2016-12-26T11:54:09.179Z,93.9
2016-12-26T11:55:12.627Z,93.9
2016-12-26T11:56:15.572Z,93.9
2016-12-26T11:57:19.023Z,93.9
2016-12-26T11:58:22.470Z,93.9
2016-12-26T11:59:25.927Z,93.9
2016-12-26T12:00:28.876Z,93.8
2016-12-26T12:01:32.330Z,93.9
2016-12-26T12:02:35.784Z,93.8
2016-12-26T12:03:39.230Z,93.8
2016-12-26T12:04:42.689Z,93.8
2016-12-26T12:05:45.644Z,93.8
2016-12-26T12:06:49.101Z,93.8
2016-12-26T12:07:52.692Z,93.8
2016-12-26T12:08:55.639Z,93.8
2016-12-26T12:09:59.089Z,93.8
2016-12-26T12:11:02.546Z,93.8
2016-12-26T12:13:08.904Z,93.8
2016-12-26T12:14:12.357Z,93.8
2016-12-26T12:15:15.816Z,93.8
2016-12-26T12:16:19.270Z,93.8
2016-12-26T12:17:22.720Z,93.8
2016-12-26T12:18:25.669Z,93.8
2016-12-26T12:19:29.126Z,93.8
2016-12-26T12:20:32.578Z,93.8
2016-12-26T12:21:36.031Z,93.8
2016-12-26T12:22:38.990Z,93.8
2016-12-26T12:23:42.443Z,93.8
2016-12-26T12:24:45.900Z,93.8
2016-12-26T12:25:49.354Z,93.8
2016-12-26T12:26:52.308Z,93.8
2016-12-26T12:27:55.759Z,93.8
2016-12-26T12:28:59.210Z,93.8
2016-12-26T12:30:02.659Z,93.8
2016-12-26T12:31:06.109Z,93.8
2016-12-26T12:32:09.057Z,93.8
2016-12-26T12:33:12.509Z,93.8
2016-12-26T12:34:15.959Z,93.8
2016-12-26T12:35:19.412Z,93.8
2016-12-26T12:36:22.367Z,93.8
2016-12-26T12:37:25.817Z,93.8
2016-12-26T12:38:29.269Z,93.8
2016-12-26T12:39:32.718Z,93.8
2016-12-26T12:40:36.174Z,93.8
2016-12-26T12:41:39.146Z,93.7
2016-12-26T12:42:42.592Z,93.6
2016-12-26T12:43:45.679Z,93.6
2016-12-26T12:44:49.130Z,93.5
2016-12-26T12:45:52.587Z,93.5
2016-12-26T12:46:56.041Z,93.5
2016-12-26T12:47:58.987Z,93.5
2016-12-26T12:49:02.436Z,93.5
2016-12-26T12:50:05.890Z,93.5
2016-12-26T12:51:09.344Z,93.5
2016-12-26T12:52:12.292Z,93.5
2016-12-26T12:53:15.743Z,93.5
2016-12-26T12:54:19.196Z,93.5
2016-12-26T12:55:22.141Z,93.6
2016-12-26T12:56:25.625Z,93.6
2016-12-26T12:57:29.208Z,93.6
2016-12-26T12:58:32.156Z,93.6
2016-12-26T12:59:35.611Z,93.7
2016-12-26T13:00:39.062Z,93.7
2016-12-26T13:01:42.013Z,93.7
2016-12-26T13:02:45.463Z,93.7
2016-12-26T13:03:48.923Z,93.7
2016-12-26T13:04:51.868Z,93.7
2016-12-26T13:05:55.316Z,93.7
2016-12-26T13:06:58.770Z,93.7
2016-12-26T13:08:01.715Z,93.8
2016-12-26T13:09:05.167Z,93.8
2016-12-26T13:10:08.619Z,93.8
2016-12-26T13:11:11.575Z,93.8
2016-12-26T13:12:15.024Z,93.8
2016-12-26T13:13:18.507Z,93.8
2016-12-26T13:14:21.450Z,93.8
2016-12-26T13:15:24.905Z,93.8
2016-12-26T13:16:28.357Z,93.9
2016-12-26T13:17:31.307Z,93.9
2016-12-26T13:18:34.762Z,93.9
2016-12-26T13:19:38.211Z,93.9
2016-12-26T13:20:41.189Z,93.9
2016-12-26T13:21:44.640Z,93.9
2016-12-26T13:22:48.099Z,93.9
2016-12-26T13:23:51.078Z,93.9
2016-12-26T13:24:54.526Z,94
2016-12-26T13:25:57.477Z,94
2016-12-26T13:28:04.115Z,94
2016-12-26T13:29:07.560Z,94
2016-12-26T13:30:11.010Z,94.1
2016-12-26T13:31:13.960Z,94.1
2016-12-26T13:32:17.409Z,94.1
2016-12-26T13:33:20.862Z,94.1
2016-12-26T13:34:23.806Z,94.1
2016-12-26T13:35:27.251Z,94.1
2016-12-26T13:36:30.706Z,94.2
2016-12-26T13:37:33.658Z,94.2
2016-12-26T13:39:40.520Z,94.2
2016-12-26T13:40:43.463Z,94.2
2016-12-26T13:41:46.915Z,94.2
2016-12-26T13:42:50.366Z,94.2
2016-12-26T13:43:53.317Z,94.2
2016-12-26T13:44:56.772Z,94.2
2016-12-26T13:45:59.724Z,94.3
2016-12-26T13:47:03.176Z,94.3
2016-12-26T13:48:06.629Z,94.3
2016-12-26T13:49:09.581Z,94.3
2016-12-26T13:50:13.031Z,94.3
2016-12-26T13:51:16.485Z,94.3
2016-12-26T13:52:19.436Z,94.3
2016-12-26T13:53:22.893Z,94.3
2016-12-26T13:54:26.343Z,94.3
2016-12-26T13:55:29.287Z,94.3
2016-12-26T13:56:32.737Z,94.4
2016-12-26T13:57:36.185Z,94.4
2016-12-26T13:58:39.131Z,94.4
2016-12-26T13:59:42.583Z,94.4
2016-12-26T14:00:46.044Z,94.4
2016-12-26T14:01:48.994Z,94.4
2016-12-26T14:03:55.866Z,94.4
2016-12-26T14:04:58.848Z,94.4
2016-12-26T14:06:02.298Z,94.4
2016-12-26T14:07:05.746Z,94.4
2016-12-26T14:08:08.695Z,94.4
2016-12-26T14:09:12.148Z,94.4
2016-12-26T14:10:15.598Z,94.4
2016-12-26T14:11:18.546Z,94.5
2016-12-26T14:12:21.997Z,94.5
2016-12-26T14:13:25.448Z,94.5
2016-12-26T14:14:28.401Z,94.4
2016-12-26T14:15:31.853Z,94.5
2016-12-26T14:16:34.799Z,94.5
2016-12-26T14:17:38.243Z,94.5
2016-12-26T14:18:41.696Z,94.5
2016-12-26T14:19:44.644Z,94.5
2016-12-26T14:20:48.096Z,94.5
2016-12-26T14:21:51.544Z,94.5
2016-12-26T14:22:54.490Z,94.5
2016-12-26T14:23:57.939Z,94.5
2016-12-26T14:25:01.393Z,94.5
2016-12-26T14:26:04.344Z,94.5
2016-12-26T14:27:07.799Z,94.5
2016-12-26T14:28:11.254Z,94.6
2016-12-26T14:29:14.203Z,94.6
2016-12-26T14:30:17.656Z,94.6
2016-12-26T14:31:21.105Z,94.6
2016-12-26T14:32:24.049Z,94.6